Skip Navigation Links
NOAA logo - Click to go to the NOAA homepage
NOAA's National Weather Service
Alaska Aviation Weather Unit
  NWS logo - Click to go to the NWS homepage
Left Navbar Graphic     23 AKDT = 07 GMT

   
NOAA is celebrating 200 years of science, service, and stewardship. Visit the NOAA 200th celebration Web site to learn more.
USA.gov is the U.S. Government's official Web portal to all Federal, state and local government Web resources and services.
Facebook
NWS on Facebook

Important Change Regarding the AAWU Web Presence

 

Over the last several months, the AAWU has been working to navigate its webpages to a nationally supported server. Security, as well as other needs, have necessitated the change.  In the process, we have made an effort to enhance the functionality of our website, as well as some of our products. As of June 20, 2017, aawu.arh.noaa.gov will be discontinued. The new AAWU web address is weather.gov/aawu. It is now live and will run in-parallel with the old site until it is discontinued. Please send any feedback or questions regarding the new webpages to nws.ar.aawu.webauthors@noaa.gov.  Thank you for your patience during this time of transition.
AAWU Home :: Display TAF Add Bookmark
TAF PAIL 240530Z 2406/2506 12007KT P6SM VCSH BKN040 OVC070
     FM240700 12011G18KT P6SM -RA SCT015 OVC025
     FM240900 12011G18KT P6SM -RA SCT008 OVC015
     FM242200 23015G25KT P6SM -SHRA BKN025 OVC040=
METAR PAIL 240153Z 11006KT 10SM BKN060 OVC075 10/02 A3000 RMK AO2 SLP161
     T01000022=

METAR PAIL 240253Z 09006KT 10SM SCT060 OVC080 09/01 A2998 RMK AO2
 SLP155 T00940011 58018=

METAR PAIL 240353Z 12006KT 10SM BKN050 OVC065 09/02 A2997 RMK AO2 SLP150
     T00940017=

METAR PAIL 240453Z 13006KT 10SM OVC044 08/02 A2995 RMK AO2 RAB38E46
 SLP143 P0000 T00830022=

METAR PAIL 240553Z AUTO 12007KT 10SM -RA OVC039 07/03 A2994 RMK AO2
 RAB06 SLP141 P0000 60000 T00720028 10100 20067 56014 TSNO=


NOAA's National Weather Service
Alaska Aviation Weather Unit
6930 Sand Lake Road
Anchorage, AK 99502-1845
Disclaimer
Credits
Glossary
Privacy Policy
About Us
Career Opportunities
Contact AAWU Internet Services Site last modified: April, 17th 2012